Terminal Aerodrome Forecast
Issued by NWS Omaha/Valley, NE

Home | Current Version | Previous Version | Text Only | Print | Product List | Glossary Off
Versions: 1 2 3 4 5 6 7 8 9 10 11 12 13 14 15 16 17 18 19 20 21 22 23 24 25 26 27 28 29 30 31 32 33 34 35 36 37 38 39 40 41 42 43 44 45 46 47 48 49 50

000
FTUS43 KOAX 210910 AAA
TAFOFK
TAF AMD
KOFK 210910Z 2109/2206 18009KT 2SM BR OVC002
      TEMPO 2109/2112 3/4SM BR
     FM211500 19010KT 2SM BR OVC004
     FM211700 19013KT 4SM HZ OVC007
     FM211900 19015G22KT 5SM BR OVC015
     FM220000 19015G23KT 5SM -RA OVC015=

USA.gov is the U.S. government's official web portal to all federal, state and local government web resources and services.